createdAt,value
2022-11-30T00:03:12.215Z,98336.19
2022-11-30T00:08:13.858Z,98340.09
2022-11-30T00:13:15.257Z,98342.72
2022-11-30T00:18:17.740Z,98344.94
2022-11-30T00:23:19.107Z,98349.81
2022-11-30T00:28:20.471Z,98352.47
2022-11-30T00:33:21.840Z,98348.16
2022-11-30T00:38:23.448Z,98345.09
2022-11-30T00:43:24.823Z,98354.56
2022-11-30T00:48:26.464Z,98354.28
2022-11-30T00:53:27.872Z,98347.88
2022-11-30T00:58:29.281Z,98347.06
2022-11-30T01:03:30.761Z,98352.34
2022-11-30T01:08:33.125Z,98351.66
2022-11-30T01:13:34.770Z,98350.94
2022-11-30T01:18:37.978Z,98342.03
2022-11-30T01:23:40.491Z,98341.34
2022-11-30T01:28:43.991Z,98339.78
2022-11-30T01:33:52.763Z,98345.78
2022-11-30T01:38:57.036Z,98342.88
2022-11-30T01:44:20.245Z,98340.22
2022-11-30T01:49:29.747Z,98338.41
2022-11-30T01:54:41.199Z,98338.13
2022-11-30T01:59:42.694Z,98350.94
2022-11-30T02:04:44.438Z,98342.59
2022-11-30T02:09:45.998Z,98352.75
2022-11-30T02:14:54.147Z,98347.44
2022-11-30T02:20:21.896Z,98357.34
2022-11-30T02:25:48.347Z,98355.47
2022-11-30T02:30:53.810Z,98362.03
2022-11-30T02:35:57.027Z,98361.47
2022-11-30T02:40:58.391Z,98360.22
2022-11-30T02:46:11.861Z,98352.03
2022-11-30T02:51:17.910Z,98349.78
2022-11-30T02:56:20.545Z,98352.41
2022-11-30T03:01:22.173Z,98365.63
2022-11-30T03:06:23.594Z,98359.06
2022-11-30T03:11:25.690Z,98367.94
2022-11-30T03:16:27.054Z,98378.69
2022-11-30T03:21:28.783Z,98365.84
2022-11-30T03:26:30.330Z,98372.38
2022-11-30T03:31:31.747Z,98375.31
2022-11-30T03:36:33.169Z,98380.03
2022-11-30T03:41:34.524Z,98380.28
2022-11-30T03:46:35.974Z,98376.50
2022-11-30T03:51:37.551Z,98374.41
2022-11-30T03:56:38.944Z,98391.38
2022-11-30T04:01:41.087Z,98387.06
2022-11-30T04:06:42.567Z,98382.19
2022-11-30T04:11:43.975Z,98387.94
2022-11-30T04:16:45.347Z,98388.63
2022-11-30T04:21:46.735Z,98386.84
2022-11-30T04:26:48.130Z,98386.00
2022-11-30T04:31:49.502Z,98379.53
2022-11-30T04:36:51.673Z,98381.31
2022-11-30T04:41:55.263Z,98389.06
2022-11-30T04:46:56.698Z,98386.94
2022-11-30T04:51:58.086Z,98381.59
2022-11-30T04:56:59.851Z,98390.31
2022-11-30T05:02:01.259Z,98391.69
2022-11-30T05:07:02.695Z,98396.38
2022-11-30T05:12:04.235Z,98401.34
2022-11-30T05:17:05.637Z,98399.19
2022-11-30T05:22:07.035Z,98398.50
2022-11-30T05:27:14.361Z,98406.69
2022-11-30T05:32:18.302Z,98411.25
2022-11-30T05:37:19.742Z,98422.06
2022-11-30T05:42:21.674Z,98424.25
2022-11-30T05:47:23.078Z,98436.75
2022-11-30T05:52:24.511Z,98441.31
2022-11-30T05:57:25.932Z,98440.41
2022-11-30T06:02:28.444Z,98438.50
2022-11-30T06:07:30.159Z,98451.03
2022-11-30T06:12:31.623Z,98456.31
2022-11-30T06:17:33.032Z,98449.28
2022-11-30T06:22:34.635Z,98450.59
2022-11-30T06:27:35.997Z,98455.28
2022-11-30T06:32:37.481Z,98450.84
2022-11-30T06:37:38.991Z,98451.31
2022-11-30T06:42:40.613Z,98459.59
2022-11-30T06:47:42.132Z,98463.56
2022-11-30T06:52:43.491Z,98480.09
2022-11-30T06:57:47.583Z,98480.81
2022-11-30T07:02:49.080Z,98485.84
2022-11-30T07:07:50.891Z,98478.66
2022-11-30T07:12:52.385Z,98491.38
2022-11-30T07:17:53.896Z,98490.19
2022-11-30T07:22:55.919Z,98491.75
2022-11-30T07:28:01.145Z,98495.09
2022-11-30T07:33:02.728Z,98491.13
2022-11-30T07:43:25.352Z,98502.97
2022-11-30T07:49:00.843Z,98507.84
2022-11-30T07:54:02.891Z,98503.13
2022-11-30T07:59:04.652Z,98498.41
2022-11-30T08:04:51.323Z,98512.84
2022-11-30T08:09:54.477Z,98511.19
2022-11-30T08:15:18.657Z,98499.59
2022-11-30T08:20:17.320Z,98501.09
2022-11-30T08:25:18.767Z,98499.91
2022-11-30T08:30:20.187Z,98510.84
2022-11-30T08:35:21.602Z,98514.00
2022-11-30T08:40:23.005Z,98527.00
2022-11-30T08:45:24.434Z,98526.50
2022-11-30T08:50:25.807Z,98532.06
2022-11-30T08:55:27.179Z,98528.97
2022-11-30T09:00:28.608Z,98536.97
2022-11-30T09:05:30.006Z,98534.75
2022-11-30T09:10:31.402Z,98545.34
2022-11-30T09:15:33.349Z,98535.00
2022-11-30T09:20:35.886Z,98545.72
2022-11-30T09:25:37.542Z,98544.03
2022-11-30T09:30:38.965Z,98543.06
2022-11-30T09:35:40.524Z,98543.78
2022-11-30T09:40:42.470Z,98537.50
2022-11-30T09:45:53.375Z,98542.28
2022-11-30T09:50:56.076Z,98550.66
2022-11-30T09:55:59.885Z,98536.34
2022-11-30T10:01:06.677Z,98531.22
2022-11-30T10:06:15.837Z,98524.56
2022-11-30T10:11:48.142Z,98538.56
2022-11-30T10:17:07.016Z,98540.25
2022-11-30T10:22:14.659Z,98531.94
2022-11-30T10:27:40.932Z,98535.13
2022-11-30T10:32:45.410Z,98533.63
2022-11-30T10:37:48.567Z,98539.09
2022-11-30T10:42:59.152Z,98540.91
2022-11-30T10:48:13.950Z,98530.88
2022-11-30T10:53:15.509Z,98537.84
2022-11-30T10:58:31.402Z,98532.41
2022-11-30T11:03:33.827Z,98531.16
2022-11-30T11:08:35.438Z,98541.75
2022-11-30T11:13:38.637Z,98529.22
2022-11-30T11:18:57.583Z,98528.09
2022-11-30T11:23:59.049Z,98531.72
2022-11-30T11:29:00.574Z,98522.13
2022-11-30T11:34:02.078Z,98519.75
2022-11-30T11:39:23.508Z,98510.50
2022-11-30T11:44:27.848Z,98514.03
2022-11-30T11:49:31.525Z,98522.25
2022-11-30T11:54:47.156Z,98525.03
2022-11-30T12:00:05.389Z,98525.59
2022-11-30T12:05:15.978Z,98520.88
2022-11-30T12:10:50.819Z,98529.38
2022-11-30T12:15:57.965Z,98525.75
2022-11-30T12:21:22.444Z,98525.31
2022-11-30T12:26:53.453Z,98521.13
2022-11-30T12:32:19.815Z,98518.34
2022-11-30T12:37:48.459Z,98523.50
2022-11-30T12:43:01.464Z,98525.28
2022-11-30T12:48:26.603Z,98527.50
2022-11-30T12:53:43.003Z,98521.50
2022-11-30T12:58:51.097Z,98528.47
2022-11-30T13:04:08.841Z,98528.59
2022-11-30T13:09:41.435Z,98526.09
2022-11-30T13:14:43.346Z,98528.03
2022-11-30T13:20:00.074Z,98529.72
2022-11-30T13:25:16.555Z,98530.56
2022-11-30T13:30:41.399Z,98534.06
2022-11-30T13:35:53.557Z,98533.09
2022-11-30T13:41:01.060Z,98534.91
2022-11-30T13:46:13.339Z,98540.75
2022-11-30T13:51:35.165Z,98544.38
2022-11-30T13:56:36.903Z,98545.28
2022-11-30T14:01:38.427Z,98551.38
2022-11-30T14:06:42.678Z,98551.25
2022-11-30T14:11:45.250Z,98549.94
2022-11-30T14:16:46.790Z,98553.47
2022-11-30T14:21:48.949Z,98554.53
2022-11-30T14:26:51.716Z,98551.00
2022-11-30T14:32:15.751Z,98556.09
2022-11-30T14:37:33.038Z,98558.69
2022-11-30T14:42:36.553Z,98553.28
2022-11-30T14:47:38.048Z,98558.06
2022-11-30T14:53:21.265Z,98560.75
2022-11-30T14:58:43.899Z,98564.22
2022-11-30T15:03:47.435Z,98570.25
2022-11-30T15:08:53.258Z,98565.63
2022-11-30T15:14:08.275Z,98570.56
2022-11-30T15:19:22.392Z,98575.31
2022-11-30T15:24:25.476Z,98577.72
2022-11-30T15:29:43.578Z,98585.38
2022-11-30T15:34:54.955Z,98588.66
2022-11-30T15:40:00.898Z,98579.47
2022-11-30T15:45:36.117Z,98583.66
2022-11-30T15:50:39.358Z,98583.09
2022-11-30T15:55:47.597Z,98584.06
2022-11-30T16:01:24.634Z,98586.44
2022-11-30T16:06:35.289Z,98585.59
2022-11-30T16:11:36.928Z,98588.94
2022-11-30T16:16:38.429Z,98583.53
2022-11-30T16:21:40.358Z,98585.31
2022-11-30T16:26:51.755Z,98582.09
2022-11-30T16:31:53.766Z,98588.38
2022-11-30T16:36:55.287Z,98584.75
2022-11-30T16:41:56.798Z,98586.44
2022-11-30T16:46:58.271Z,98588.50
2022-11-30T16:51:59.728Z,98592.00
2022-11-30T16:57:01.422Z,98584.75
2022-11-30T17:02:04.977Z,98593.25
2022-11-30T17:07:06.794Z,98603.75
2022-11-30T17:12:09.263Z,98602.75
2022-11-30T17:17:10.762Z,98616.25
2022-11-30T17:22:12.173Z,98612.06
2022-11-30T17:27:13.543Z,98621.72
2022-11-30T17:32:14.996Z,98618.06
2022-11-30T17:37:16.498Z,98628.66
2022-11-30T17:42:18.035Z,98631.06
2022-11-30T17:47:19.463Z,98637.91
2022-11-30T17:52:20.903Z,98639.31
2022-11-30T17:57:47.799Z,98642.69
2022-11-30T18:02:53.307Z,98643.41
2022-11-30T18:07:54.935Z,98643.25
2022-11-30T18:12:56.324Z,98647.44
2022-11-30T18:18:01.186Z,98644.91
2022-11-30T18:23:02.607Z,98646.47
2022-11-30T18:28:06.540Z,98647.88
2022-11-30T18:33:08.405Z,98653.47
2022-11-30T18:38:09.776Z,98665.16
2022-11-30T18:43:11.236Z,98676.00
2022-11-30T18:48:12.675Z,98669.63
2022-11-30T18:53:18.261Z,98661.41
2022-11-30T18:58:20.044Z,98679.66
2022-11-30T19:03:21.419Z,98680.38
2022-11-30T19:08:23.304Z,98689.88
2022-11-30T19:13:24.999Z,98680.25
2022-11-30T19:18:26.510Z,98685.41
2022-11-30T19:23:28.418Z,98681.94
2022-11-30T19:28:31.091Z,98684.69
2022-11-30T19:33:35.686Z,98673.53
2022-11-30T19:38:37.148Z,98681.88
2022-11-30T19:43:39.128Z,98688.16
2022-11-30T19:48:41.823Z,98684.66
2022-11-30T19:53:44.565Z,98687.69
2022-11-30T19:58:46.445Z,98695.19
2022-11-30T20:03:48.160Z,98698.09
2022-11-30T20:08:49.573Z,98702.09
2022-11-30T20:13:51.436Z,98714.91
2022-11-30T20:18:57.602Z,98704.38
2022-11-30T20:24:01.016Z,98704.06
2022-11-30T20:29:04.496Z,98710.44
2022-11-30T20:34:07.971Z,98715.88
2022-11-30T20:39:10.663Z,98707.47
2022-11-30T20:44:14.823Z,98716.75
2022-11-30T20:49:18.348Z,98725.19
2022-11-30T20:54:19.893Z,98729.06
2022-11-30T20:59:23.477Z,98732.22
2022-11-30T21:04:28.325Z,98739.72
2022-11-30T21:09:29.721Z,98724.34
2022-11-30T21:14:31.130Z,98731.06
2022-11-30T21:19:33.582Z,98741.91
2022-11-30T21:24:35.098Z,98740.47
2022-11-30T21:29:36.622Z,98742.16
2022-11-30T21:34:38.089Z,98736.41
2022-11-30T21:39:40.894Z,98741.69
2022-11-30T21:44:42.393Z,98745.22
2022-11-30T21:49:43.852Z,98741.25
2022-11-30T21:54:45.349Z,98753.72
2022-11-30T21:59:47.043Z,98745.59
2022-11-30T22:04:48.710Z,98745.09
2022-11-30T22:09:50.391Z,98741.88
2022-11-30T22:14:51.946Z,98748.31
2022-11-30T22:19:53.310Z,98751.22
2022-11-30T22:24:55.605Z,98744.38
2022-11-30T22:29:56.962Z,98747.25
2022-11-30T22:34:58.319Z,98745.47
2022-11-30T22:39:59.814Z,98741.25
2022-11-30T22:45:01.166Z,98753.97
2022-11-30T22:50:02.658Z,98747.16
2022-11-30T22:55:04.310Z,98744.84
2022-11-30T23:00:06.759Z,98745.06
2022-11-30T23:05:08.309Z,98751.56
2022-11-30T23:10:09.742Z,98748.78
2022-11-30T23:15:11.455Z,98747.84
2022-11-30T23:20:13.279Z,98748.94
2022-11-30T23:25:16.669Z,98747.34
2022-11-30T23:30:18.154Z,98736.28
2022-11-30T23:35:19.599Z,98733.88
2022-11-30T23:40:21.120Z,98728.97
2022-11-30T23:45:22.508Z,98725.84
2022-11-30T23:50:23.870Z,98717.44
2022-11-30T23:55:25.284Z,98724.84
